Time;durP1;ratioP1;P1;durP2;ratioP2;P2;SDS_P1;SDS_P2;PMS_P1;PMS_P2;Temp;Humidity;BMP_temperature;BMP_pressure;BME280_temperature;BME280_humidity;BME280_pressure;Samples;Min_cycle;Max_cycle;Signal;HPM_P1;HPM_P2
2021/07/01 00:02:03;;;;;;;;;;;;;;;23.84;71.41;100062.22;5020436;28;1838;-45
2021/07/01 00:04:31;;;;;;;;;;;;;;;23.85;71.37;100064.72;5019525;28;2242;-44
2021/07/01 00:06:57;;;;;;;;;;;;;;;23.82;71.21;100057.81;5023130;28;1387;-44
2021/07/01 00:09:24;;;;;;;;;;;;;;;23.85;70.57;100053.06;5026942;28;2006;-44
2021/07/01 00:11:51;;;;;;;;;;;;;;;23.81;70.61;100064.25;5021328;28;1715;-45
2021/07/01 00:14:19;;;;;;;;;;;;;;;23.81;71.29;100064.25;5015077;28;1715;-44
2021/07/01 00:16:46;;;;;;;;;;;;;;;23.81;71.02;100066.97;5019929;28;1639;-45
2021/07/01 00:19:12;;;;;;;;;;;;;;;23.84;70.92;100078.41;5021388;28;2055;-45
2021/07/01 00:21:40;;;;;;;;;;;;;;;23.81;70.57;100048.06;5022019;28;1008;-45
2021/07/01 00:24:06;;;;;;;;;;;;;;;23.81;70.55;100053.47;5028171;28;1843;-45
2021/07/01 00:26:33;;;;;;;;;;;;;;;23.81;70.41;100063.41;5019712;28;1796;-45
2021/07/01 00:28:59;;;;;;;;;;;;;;;23.78;70.12;100053.81;5019553;28;2282;-44
2021/07/01 00:31:26;;;;;;;;;;;;;;;23.82;70.01;100047.03;5021209;28;1955;-46
2021/07/01 00:33:52;;;;;;;;;;;;;;;23.79;70.77;100047.38;5020577;28;1804;-45
2021/07/01 00:36:18;;;;;;;;;;;;;;;23.77;70.24;100046.72;5011903;28;1146;-45
2021/07/01 00:38:47;;;;;;;;;;;;;;;23.79;70.45;100057.34;5013466;28;1903;-44
2021/07/01 00:41:13;;;;;;;;;;;;;;;23.75;71.01;100059.53;5020778;28;1800;-45
2021/07/01 00:43:40;;;;;;;;;;;;;;;23.70;71.45;100045.78;5020989;28;1665;-45
2021/07/01 00:46:06;;;;;;;;;;;;;;;23.63;70.92;100037.59;5020874;28;1064;-44
2021/07/01 00:48:32;;;;;;;;;;;;;;;23.66;72.09;100036.38;5019443;28;1902;-45
2021/07/01 00:50:59;;;;;;;;;;;;;;;23.75;71.00;100031.72;5018768;28;1796;-45
2021/07/01 00:53:26;;;;;;;;;;;;;;;23.72;71.97;100030.22;5030346;28;1978;-45
2021/07/01 00:55:54;;;;;;;;;;;;;;;23.72;72.02;100038.31;5020060;28;1668;-46
2021/07/01 00:58:21;;;;;;;;;;;;;;;23.59;71.37;100021.91;5011910;28;1055;-44
2021/07/01 01:00:58;;;;;;;;;;;;;;;23.64;72.20;100035.72;5018571;28;1776;-45
2021/07/01 01:03:25;;;;;;;;;;;;;;;23.65;72.54;100025.75;5020061;28;1763;-45
2021/07/01 01:05:51;;;;;;;;;;;;;;;23.54;72.15;100019.78;5023340;28;2494;-45
2021/07/01 01:08:17;;;;;;;;;;;;;;;23.57;71.93;100015.88;5033294;28;1910;-46
2021/07/01 01:10:44;;;;;;;;;;;;;;;23.64;72.11;100035.72;5023990;28;1075;-47
2021/07/01 01:13:12;;;;;;;;;;;;;;;23.58;72.50;100037.28;5022789;28;1935;-45
2021/07/01 01:15:38;;;;;;;;;;;;;;;23.40;71.74;100032.22;5022632;28;1783;-45
2021/07/01 01:18:05;;;;;;;;;;;;;;;23.30;71.85;100047.81;5024219;28;1875;-44
2021/07/01 01:20:31;;;;;;;;;;;;;;;23.26;71.94;100043.81;5024464;28;1575;-45
2021/07/01 01:23:00;;;;;;;;;;;;;;;23.40;71.88;100052.97;5031214;28;1076;-45
2021/07/01 01:25:26;;;;;;;;;;;;;;;23.50;72.69;100047.31;5022232;28;1866;-46
2021/07/01 01:27:53;;;;;;;;;;;;;;;23.54;72.38;100059.44;5023036;28;1807;-45
2021/07/01 01:57:46;;;;;;;;;;;;;;;23.41;73.08;100050.06;5019231;28;1834;-45
2021/07/01 02:02:47;;;;;;;;;;;;;;;23.37;73.59;100040.66;5038182;23;1863;-47
2021/07/01 02:05:14;;;;;;;;;;;;;;;23.45;73.54;100058.66;5019835;28;1655;-47
2021/07/01 02:07:41;;;;;;;;;;;;;;;23.40;73.56;100056.50;5022797;28;1557;-47
2021/07/01 02:10:09;;;;;;;;;;;;;;;23.45;73.72;100065.91;5023661;28;1969;-47
2021/07/01 02:12:35;;;;;;;;;;;;;;;23.46;73.23;100059.47;5023775;28;1802;-47
2021/07/01 02:15:04;;;;;;;;;;;;;;;23.48;73.21;100081.75;5023370;28;1892;-48
2021/07/01 02:17:33;;;;;;;;;;;;;;;23.49;73.35;100075.31;5023517;28;1476;-47
2021/07/01 02:19:59;;;;;;;;;;;;;;;23.51;73.26;100084.06;5026245;28;1026;-47
2021/07/01 02:22:26;;;;;;;;;;;;;;;23.50;73.27;100088.63;5021113;28;1645;-47
2021/07/01 02:24:52;;;;;;;;;;;;;;;23.38;72.73;100100.88;5024925;28;2064;-47
2021/07/01 02:27:19;;;;;;;;;;;;;;;23.39;73.27;100102.53;5023430;28;1697;-47
2021/07/01 02:29:45;;;;;;;;;;;;;;;23.46;73.38;100108.06;5022794;28;1902;-47
2021/07/01 02:32:13;;;;;;;;;;;;;;;23.44;72.69;100105.56;5023233;28;1810;-47
2021/07/01 02:34:40;;;;;;;;;;;;;;;23.39;72.76;100108.78;5016861;28;1788;-47
2021/07/01 02:37:07;;;;;;;;;;;;;;;23.32;72.75;100102.44;5024583;28;1059;-47
2021/07/01 02:39:33;;;;;;;;;;;;;;;23.33;72.60;100112.19;5027157;28;1839;-47
2021/07/01 02:42:00;;;;;;;;;;;;;;;23.30;72.54;100109.88;5023121;28;1844;-47
2021/07/01 02:44:26;;;;;;;;;;;;;;;23.32;72.50;100121.31;5021855;28;1669;-47
2021/07/01 02:46:53;;;;;;;;;;;;;;;23.31;72.40;100133.13;5020238;28;2161;-47
2021/07/01 02:49:20;;;;;;;;;;;;;;;23.30;72.61;100133.28;5020150;28;1926;-48
2021/07/01 02:51:47;;;;;;;;;;;;;;;23.25;72.39;100123.06;5012787;28;1055;-47
2021/07/01 02:54:13;;;;;;;;;;;;;;;23.27;72.44;100130.97;5017540;28;1879;-48
2021/07/01 02:56:42;;;;;;;;;;;;;;;23.32;72.64;100129.41;5019683;28;1527;-47
2021/07/01 02:59:09;;;;;;;;;;;;;;;23.40;72.33;100145.53;5020524;28;1776;-47
2021/07/01 03:01:35;;;;;;;;;;;;;;;23.28;72.48;100136.19;5020436;28;1912;-48
2021/07/01 03:04:02;;;;;;;;;;;;;;;23.23;72.70;100135.88;5021477;28;1660;-47
2021/07/01 03:06:30;;;;;;;;;;;;;;;23.25;72.41;100130.31;5021080;28;1082;-47
2021/07/01 03:08:58;;;;;;;;;;;;;;;23.26;72.53;100142.75;5027833;28;1918;-47
2021/07/01 03:11:24;;;;;;;;;;;;;;;23.23;72.32;100149.38;5019862;28;1791;-47
2021/07/01 03:13:50;;;;;;;;;;;;;;;23.24;72.33;100148.38;5021033;28;1740;-47
2021/07/01 03:16:19;;;;;;;;;;;;;;;23.21;72.24;100159.50;5020014;28;1922;-47
2021/07/01 03:18:46;;;;;;;;;;;;;;;23.20;72.24;100160.53;5023390;28;1060;-47
2021/07/01 03:21:12;;;;;;;;;;;;;;;23.17;72.41;100152.78;5019149;28;1913;-47
2021/07/01 03:23:40;;;;;;;;;;;;;;;23.21;72.38;100167.59;5028208;28;1664;-47
2021/07/01 03:26:06;;;;;;;;;;;;;;;23.17;72.31;100174.34;5012882;28;1707;-47
2021/07/01 03:28:33;;;;;;;;;;;;;;;23.17;71.98;100177.06;5020008;28;1748;-47
2021/07/01 03:30:59;;;;;;;;;;;;;;;23.20;72.51;100176.72;5012004;28;1906;-48
2021/07/01 03:33:26;;;;;;;;;;;;;;;23.17;72.60;100185.16;5018190;28;1904;-47
2021/07/01 03:35:52;;;;;;;;;;;;;;;23.15;72.80;100182.63;5019843;28;1749;-48
2021/07/01 03:38:19;;;;;;;;;;;;;;;23.21;72.55;100194.56;5029714;28;1498;-48
2021/07/01 03:40:47;;;;;;;;;;;;;;;23.19;72.58;100193.91;5021077;28;1019;-47
2021/07/01 03:43:13;;;;;;;;;;;;;;;23.19;72.66;100193.91;5018939;28;1751;-47
2021/07/01 03:45:40;;;;;;;;;;;;;;;23.18;72.72;100186.84;5018995;28;1985;-47
2021/07/01 03:48:06;;;;;;;;;;;;;;;23.17;73.04;100185.97;5020740;28;1927;-47
2021/07/01 03:50:33;;;;;;;;;;;;;;;23.16;73.07;100195.09;5020705;28;1902;-47
2021/07/01 03:52:59;;;;;;;;;;;;;;;23.15;72.87;100176.38;5028647;28;1063;-47
2021/07/01 03:55:25;;;;;;;;;;;;;;;23.18;72.59;100190.38;5019110;28;1976;-47
2021/07/01 03:57:53;;;;;;;;;;;;;;;23.28;72.75;100205.47;5019976;28;1644;-46
2021/07/01 04:00:20;;;;;;;;;;;;;;;23.33;72.51;100208.50;5020924;28;2078;-47
2021/07/01 04:02:46;;;;;;;;;;;;;;;23.25;72.54;100197.75;5020409;28;1784;-48
2021/07/01 04:05:13;;;;;;;;;;;;;;;23.21;72.81;100176.50;5020893;28;1598;-47
2021/07/01 04:07:39;;;;;;;;;;;;;;;23.23;73.04;100196.06;5025941;28;1007;-47
2021/07/01 04:10:10;;;;;;;;;;;;;;;23.21;73.26;100224.22;5020353;28;2128;-47
2021/07/01 04:12:36;;;;;;;;;;;;;;;23.28;72.92;100219.81;5021054;28;1439;-47
2021/07/01 04:15:05;;;;;;;;;;;;;;;23.30;72.84;100257.41;5020887;28;1811;-47
2021/07/01 04:17:31;;;;;;;;;;;;;;;23.31;72.65;100235.63;5020279;28;1756;-48
2021/07/01 04:19:57;;;;;;;;;;;;;;;23.37;72.44;100209.81;5021232;28;1633;-47
2021/07/01 04:22:24;;;;;;;;;;;;;;;23.49;72.08;100221.88;5024020;28;1062;-47
2021/07/01 04:24:51;;;;;;;;;;;;;;;23.54;72.39;100218.66;5023077;28;1859;-47
2021/07/01 04:27:17;;;;;;;;;;;;;;;23.58;72.05;100223.50;5021382;28;1775;-47
2021/07/01 04:29:44;;;;;;;;;;;;;;;23.66;71.88;100222.63;5021403;28;1906;-47
2021/07/01 04:32:11;;;;;;;;;;;;;;;23.77;71.36;100215.94;5020872;28;1768;-47
2021/07/01 04:34:38;;;;;;;;;;;;;;;23.79;71.47;100212.06;5019759;28;1604;-47
2021/07/01 04:37:04;;;;;;;;;;;;;;;23.78;71.49;100199.59;5022697;28;1083;-48
2021/07/01 04:39:31;;;;;;;;;;;;;;;23.74;71.83;100211.75;5028990;28;1774;-47
2021/07/01 04:41:57;;;;;;;;;;;;;;;23.74;72.21;100206.34;5025315;28;1978;-48
2021/07/01 04:44:23;;;;;;;;;;;;;;;23.80;71.95;100196.72;5023959;28;1855;-47
2021/07/01 04:46:50;;;;;;;;;;;;;;;23.77;72.12;100211.41;5023105;28;1866;-47
2021/07/01 04:49:18;;;;;;;;;;;;;;;23.84;71.88;100202.63;5023442;28;1920;-48
2021/07/01 04:51:45;;;;;;;;;;;;;;;23.92;71.61;100200.69;5026316;28;1060;-48
2021/07/01 04:54:11;;;;;;;;;;;;;;;23.85;72.24;100196.19;5031300;28;2237;-47
2021/07/01 04:56:46;;;;;;;;;;;;;;;23.81;72.26;100207.38;5022542;28;1635;-47
2021/07/01 04:59:13;;;;;;;;;;;;;;;23.89;72.05;100213.69;5022989;28;1975;-47
2021/07/01 05:01:40;;;;;;;;;;;;;;;23.96;72.14;100215.50;5027383;28;1726;-48
2021/07/01 05:04:07;;;;;;;;;;;;;;;24.02;71.96;100213.94;5026622;28;1608;-48
2021/07/01 05:06:35;;;;;;;;;;;;;;;23.93;72.17;100212.31;5027629;28;1301;-47
2021/07/01 05:09:01;;;;;;;;;;;;;;;23.93;71.87;100209.63;5028043;28;1637;-47
2021/07/01 05:11:28;;;;;;;;;;;;;;;23.91;72.57;100203.56;5029991;28;1965;-47
2021/07/01 05:13:54;;;;;;;;;;;;;;;23.96;72.08;100196.59;5027793;28;2257;-48
2021/07/01 05:16:20;;;;;;;;;;;;;;;23.98;71.57;100183.75;5028898;28;1503;-48
2021/07/01 05:18:47;;;;;;;;;;;;;;;24.03;71.75;100199.38;5030753;28;1499;-48
2021/07/01 05:21:13;;;;;;;;;;;;;;;24.09;71.58;100182.44;5027886;28;1498;-47
2021/07/01 05:23:41;;;;;;;;;;;;;;;24.19;71.31;100199.25;5018797;28;3205;-47
2021/07/01 05:26:07;;;;;;;;;;;;;;;24.15;72.00;100200.66;5034240;28;2925;-47
2021/07/01 05:28:34;;;;;;;;;;;;;;;24.10;71.88;100194.94;5030616;28;5370;-48
2021/07/01 05:31:00;;;;;;;;;;;;;;;24.14;72.04;100192.72;5034154;28;1910;-47
2021/07/01 05:33:26;;;;;;;;;;;;;;;24.15;71.98;100195.25;5028304;28;5036;-47
2021/07/01 05:35:53;;;;;;;;;;;;;;;24.16;72.84;100205.03;5022977;28;4402;-47
2021/07/01 05:38:20;;;;;;;;;;;;;;;24.22;72.43;100220.50;5035012;28;1669;-47
2021/07/01 05:40:47;;;;;;;;;;;;;;;24.20;72.69;100213.59;5035239;28;1070;-46
2021/07/01 05:43:14;;;;;;;;;;;;;;;24.20;74.00;100233.34;5034845;28;2060;-47
2021/07/01 05:45:40;;;;;;;;;;;;;;;24.18;73.93;100216.47;5035123;28;1348;-46
2021/07/01 05:48:08;;;;;;;;;;;;;;;24.25;73.96;100231.94;5034213;28;1630;-46
2021/07/01 05:50:41;;;;;;;;;;;;;;;24.21;74.20;100221.53;5034513;28;1906;-45
2021/07/01 05:53:09;;;;;;;;;;;;;;;24.28;74.72;100227.03;5035660;28;1077;-46
2021/07/01 05:55:35;;;;;;;;;;;;;;;24.18;75.84;100226.47;5035029;28;1064;-46
2021/07/01 05:58:04;;;;;;;;;;;;;;;24.15;75.34;100221.41;5035049;28;1059;-47
2021/07/01 06:00:30;;;;;;;;;;;;;;;24.16;75.34;100234.75;5033693;28;1027;-47
2021/07/01 06:02:57;;;;;;;;;;;;;;;24.17;75.24;100255.34;5034328;28;1305;-46
2021/07/01 06:05:23;;;;;;;;;;;;;;;24.19;75.46;100257.84;5035410;28;1068;-46
2021/07/01 06:07:52;;;;;;;;;;;;;;;24.16;75.15;100250.94;5035449;28;1040;-46
2021/07/01 06:10:19;;;;;;;;;;;;;;;24.18;75.02;100245.38;5035032;28;1973;-46
2021/07/01 06:12:45;;;;;;;;;;;;;;;24.17;75.35;100247.25;5035061;28;1170;-46
2021/07/01 06:15:13;;;;;;;;;;;;;;;24.15;75.47;100243.00;5035012;28;1150;-46
2021/07/01 06:17:43;;;;;;;;;;;;;;;24.14;75.61;100249.47;5035190;28;1086;-46
2021/07/01 06:20:10;;;;;;;;;;;;;;;24.18;75.06;100269.69;5035470;28;1073;-46
2021/07/01 06:22:37;;;;;;;;;;;;;;;24.18;75.49;100286.72;5034856;28;1068;-46
2021/07/01 06:25:04;;;;;;;;;;;;;;;24.17;75.68;100279.66;5035152;28;1034;-46
2021/07/01 06:27:34;;;;;;;;;;;;;;;24.17;75.20;100263.44;5035055;28;1004;-46
2021/07/01 06:30:03;;;;;;;;;;;;;;;24.22;75.61;100287.22;5034848;28;1901;-46
2021/07/01 06:32:34;;;;;;;;;;;;;;;24.20;75.72;100284.69;5034663;28;1115;-46
2021/07/01 06:35:01;;;;;;;;;;;;;;;24.19;75.08;100288.41;5034932;28;1073;-46
2021/07/01 06:37:27;;;;;;;;;;;;;;;24.21;75.53;100291.78;5034585;28;1091;-46
2021/07/01 06:39:57;;;;;;;;;;;;;;;24.20;75.73;100283.84;5034499;28;1083;-46
2021/07/01 06:42:23;;;;;;;;;;;;;;;24.21;75.24;100278.28;5034424;28;1146;-46
2021/07/01 06:44:50;;;;;;;;;;;;;;;24.20;75.68;100279.28;5034432;28;946;-46
2021/07/01 06:47:18;;;;;;;;;;;;;;;24.18;75.41;100278.63;5034401;28;1067;-46
2021/07/01 06:49:47;;;;;;;;;;;;;;;24.25;75.36;100277.88;5034255;28;1902;-46
2021/07/01 06:52:14;;;;;;;;;;;;;;;24.21;75.29;100270.16;5034824;28;1069;-46
2021/07/01 06:54:41;;;;;;;;;;;;;;;24.24;75.55;100268.13;5034475;28;998;-46
2021/07/01 06:57:08;;;;;;;;;;;;;;;24.25;75.81;100265.22;5034518;28;1058;-46
2021/07/01 06:59:35;;;;;;;;;;;;;;;24.19;75.75;100253.28;5034441;28;992;-46
2021/07/01 07:02:03;;;;;;;;;;;;;;;24.18;75.56;100258.88;5033382;28;1443;-46
2021/07/01 07:04:31;;;;;;;;;;;;;;;24.20;75.81;100251.44;5034339;28;1088;-46
2021/07/01 07:06:59;;;;;;;;;;;;;;;24.20;75.32;100252.25;5034271;28;998;-46
2021/07/01 07:09:26;;;;;;;;;;;;;;;24.21;76.03;100244.97;5034556;28;1161;-46
2021/07/01 07:11:52;;;;;;;;;;;;;;;24.21;75.99;100237.75;5034415;28;1906;-47
2021/07/01 07:14:19;;;;;;;;;;;;;;;24.24;75.76;100235.69;5034230;28;1052;-46
2021/07/01 07:16:46;;;;;;;;;;;;;;;24.19;75.68;100238.94;5034107;28;1001;-46
2021/07/01 07:19:13;;;;;;;;;;;;;;;24.25;75.97;100231.94;5034156;28;2065;-46
2021/07/01 07:21:43;;;;;;;;;;;;;;;24.21;75.86;100232.34;5033844;28;1221;-46
2021/07/01 07:24:13;;;;;;;;;;;;;;;24.28;75.56;100231.59;5034049;28;1024;-46
2021/07/01 07:26:40;;;;;;;;;;;;;;;24.25;75.98;100226.56;5034017;28;1914;-46
2021/07/01 07:29:08;;;;;;;;;;;;;;;24.28;75.38;100227.03;5033682;28;1178;-46
2021/07/01 07:31:39;;;;;;;;;;;;;;;24.25;75.64;100216.56;5033592;28;1910;-46
2021/07/01 07:34:05;;;;;;;;;;;;;;;24.27;75.56;100213.69;5034240;28;1089;-46
2021/07/01 07:36:33;;;;;;;;;;;;;;;24.24;75.84;100206.81;5033912;28;1052;-46
2021/07/01 07:39:00;;;;;;;;;;;;;;;24.27;75.48;100208.28;5033604;28;1122;-46
2021/07/01 07:41:28;;;;;;;;;;;;;;;24.26;75.35;100212.88;5033797;28;999;-46
2021/07/01 07:43:55;;;;;;;;;;;;;;;24.26;75.81;100215.56;5033897;28;1051;-46
2021/07/01 07:46:22;;;;;;;;;;;;;;;24.24;75.71;100204.09;5033791;28;1081;-46
2021/07/01 07:48:49;;;;;;;;;;;;;;;24.28;75.53;100216.22;5034055;28;1076;-46
2021/07/01 07:51:17;;;;;;;;;;;;;;;24.26;75.62;100195.81;5033651;28;1910;-46
2021/07/01 07:53:46;;;;;;;;;;;;;;;24.29;75.63;100211.66;5033467;28;1209;-46
2021/07/01 07:56:15;;;;;;;;;;;;;;;24.30;75.76;100218.75;5033901;28;1002;-46
2021/07/01 07:58:45;;;;;;;;;;;;;;;24.27;75.70;100224.50;5033678;28;1073;-46
2021/07/01 08:01:12;;;;;;;;;;;;;;;24.30;75.92;100218.75;5033718;28;1435;-47
2021/07/01 08:03:39;;;;;;;;;;;;;;;24.26;75.86;100218.28;5033336;28;1071;-46
2021/07/01 08:06:06;;;;;;;;;;;;;;;24.28;75.67;100227.03;5033489;28;990;-46
2021/07/01 08:08:33;;;;;;;;;;;;;;;24.27;75.82;100213.69;5033262;28;1154;-46
2021/07/01 08:11:01;;;;;;;;;;;;;;;24.26;75.81;100212.88;5033487;28;1914;-46
2021/07/01 08:13:28;;;;;;;;;;;;;;;24.29;75.68;100219.75;5036511;28;1063;-46
2021/07/01 08:15:56;;;;;;;;;;;;;;;24.28;75.59;100224.31;5037569;28;961;-46
2021/07/01 08:18:26;;;;;;;;;;;;;;;24.29;75.64;100217.91;5037390;28;1009;-46
2021/07/01 08:20:53;;;;;;;;;;;;;;;24.28;75.92;100210.81;5037190;28;1163;-46
2021/07/01 08:23:20;;;;;;;;;;;;;;;24.32;75.96;100227.50;5037091;28;942;-46
2021/07/01 08:25:47;;;;;;;;;;;;;;;24.31;76.06;100206.91;5037086;28;1154;-46
2021/07/01 08:28:18;;;;;;;;;;;;;;;24.28;75.93;100205.41;5037293;28;1003;-46
2021/07/01 08:30:45;;;;;;;;;;;;;;;24.30;75.48;100194.44;5036881;28;1990;-46
2021/07/01 08:33:13;;;;;;;;;;;;;;;24.32;75.53;100195.09;5036908;28;1159;-46
2021/07/01 08:35:40;;;;;;;;;;;;;;;24.34;75.62;100209.25;5037119;28;1099;-46
2021/07/01 08:38:08;;;;;;;;;;;;;;;24.30;75.36;100214.19;5037046;28;1088;-46
2021/07/01 08:40:36;;;;;;;;;;;;;;;24.36;75.34;100215.31;5037095;28;1039;-46
2021/07/01 08:43:04;;;;;;;;;;;;;;;24.35;75.78;100230.69;5036740;28;1920;-46
2021/07/01 08:45:40;;;;;;;;;;;;;;;24.29;75.84;100215.22;5037003;28;1050;-46
2021/07/01 08:48:12;;;;;;;;;;;;;;;24.30;75.66;100216.03;5037010;28;1060;-46
2021/07/01 08:50:42;;;;;;;;;;;;;;;24.28;75.54;100200.00;5036551;28;1910;-46
2021/07/01 08:53:22;;;;;;;;;;;;;;;24.27;76.01;100213.69;5036800;28;1000;-46
2021/07/01 08:55:51;;;;;;;;;;;;;;;24.32;75.72;100216.69;5036796;28;1107;-46
2021/07/01 08:58:22;;;;;;;;;;;;;;;24.36;75.85;100224.25;5036766;28;954;-46
2021/07/01 09:00:49;;;;;;;;;;;;;;;24.31;75.51;100209.59;5036716;28;1053;-46
2021/07/01 09:03:17;;;;;;;;;;;;;;;24.33;75.83;100224.63;5036319;28;1388;-46
2021/07/01 09:05:46;;;;;;;;;;;;;;;24.28;75.27;100221.63;5036367;28;1194;-46
2021/07/01 09:08:14;;;;;;;;;;;;;;;24.34;75.90;100228.16;5036279;28;1091;-46
2021/07/01 09:10:48;;;;;;;;;;;;;;;24.30;75.75;100202.53;5036442;28;1987;-46
2021/07/01 09:13:15;;;;;;;;;;;;;;;24.31;75.55;100204.19;5036837;28;2045;-46
2021/07/01 09:15:42;;;;;;;;;;;;;;;24.30;75.76;100207.94;5036085;28;1100;-46
2021/07/01 09:18:10;;;;;;;;;;;;;;;24.32;75.68;100189.69;5036128;28;1186;-46
2021/07/01 09:20:38;;;;;;;;;;;;;;;24.34;75.65;100195.72;5036074;28;1150;-46
2021/07/01 09:23:06;;;;;;;;;;;;;;;24.36;76.19;100201.78;5035784;28;1079;-46
2021/07/01 09:25:34;;;;;;;;;;;;;;;24.33;76.04;100205.72;5035716;28;1013;-46
2021/07/01 09:28:00;;;;;;;;;;;;;;;24.32;75.63;100200.50;5036468;28;1046;-46
2021/07/01 09:30:31;;;;;;;;;;;;;;;24.29;75.23;100193.59;5035837;28;1106;-46
2021/07/01 09:32:59;;;;;;;;;;;;;;;24.34;75.63;100188.47;5035787;28;1973;-46
2021/07/01 09:35:27;;;;;;;;;;;;;;;24.30;76.14;100191.72;5036070;28;1073;-46
2021/07/01 09:37:54;;;;;;;;;;;;;;;24.30;75.43;100186.31;5035762;28;1055;-46
2021/07/01 09:40:23;;;;;;;;;;;;;;;24.31;75.79;100186.16;5036026;28;1037;-46
2021/07/01 09:42:52;;;;;;;;;;;;;;;24.31;75.55;100175.34;5035702;28;997;-47
2021/07/01 09:45:20;;;;;;;;;;;;;;;24.28;75.94;100178.41;5035921;28;1055;-46
2021/07/01 09:47:51;;;;;;;;;;;;;;;24.32;75.96;100195.91;5035885;28;1102;-46
2021/07/01 09:50:19;;;;;;;;;;;;;;;24.32;75.38;100186.97;5035830;28;990;-46
2021/07/01 09:52:46;;;;;;;;;;;;;;;24.29;75.92;100180.09;5035670;28;1911;-46
2021/07/01 09:55:13;;;;;;;;;;;;;;;24.30;76.13;100180.91;5035694;28;997;-46
2021/07/01 09:57:45;;;;;;;;;;;;;;;24.29;75.81;100179.22;5035703;28;1005;-47
2021/07/01 10:00:12;;;;;;;;;;;;;;;24.29;75.76;100181.94;5035625;28;1076;-47
2021/07/01 10:02:40;;;;;;;;;;;;;;;24.31;75.95;100177.19;5035097;28;1442;-46
2021/07/01 10:05:07;;;;;;;;;;;;;;;24.34;75.81;100176.81;5035155;28;1173;-46
2021/07/01 10:07:34;;;;;;;;;;;;;;;24.34;76.23;100188.47;5035710;28;1076;-46
2021/07/01 10:10:11;;;;;;;;;;;;;;;24.34;76.17;100163.31;5035456;28;1031;-46
2021/07/01 10:12:48;;;;;;;;;;;;;;;24.31;76.10;100163.66;5035291;28;1906;-46
2021/07/01 10:15:24;;;;;;;;;;;;;;;24.31;75.52;100167.22;5035661;28;1043;-46
2021/07/01 10:18:01;;;;;;;;;;;;;;;24.30;75.52;100160.13;5034934;28;1174;-46
2021/07/01 10:20:32;;;;;;;;;;;;;;;24.27;75.89;100155.09;5034966;28;1103;-46
2021/07/01 10:22:59;;;;;;;;;;;;;;;24.29;75.79;100149.50;5034903;28;1260;-46
2021/07/01 10:25:29;;;;;;;;;;;;;;;24.31;75.89;100156.41;5034840;28;1166;-46
2021/07/01 10:27:57;;;;;;;;;;;;;;;24.31;76.40;100158.25;5035516;28;2239;-46
2021/07/01 10:30:25;;;;;;;;;;;;;;;24.32;75.97;100157.25;5035214;28;1085;-46
2021/07/01 10:32:53;;;;;;;;;;;;;;;24.31;76.09;100156.41;5034897;28;1906;-46
2021/07/01 10:35:24;;;;;;;;;;;;;;;24.27;75.96;100140.75;5035014;28;998;-46
2021/07/01 10:38:01;;;;;;;;;;;;;;;24.28;76.02;100145.13;5034672;28;1091;-46
2021/07/01 10:40:28;;;;;;;;;;;;;;;24.29;76.32;100136.00;5034589;28;1116;-46
2021/07/01 10:42:56;;;;;;;;;;;;;;;24.27;75.73;100132.63;5034430;28;1158;-46
2021/07/01 10:45:23;;;;;;;;;;;;;;;24.27;76.02;100125.38;5034433;28;1131;-46
2021/07/01 10:47:51;;;;;;;;;;;;;;;24.29;76.20;100133.28;5034404;28;1163;-46
2021/07/01 10:50:30;;;;;;;;;;;;;;;24.28;76.20;100128.94;5034681;28;992;-46
2021/07/01 10:52:57;;;;;;;;;;;;;;;24.32;75.78;100130.22;5034557;28;1977;-46
2021/07/01 10:55:23;;;;;;;;;;;;;;;24.31;76.24;100123.13;5034221;28;1128;-46
2021/07/01 10:57:52;;;;;;;;;;;;;;;24.31;76.24;100133.94;5034469;28;1107;-46
2021/07/01 11:00:19;;;;;;;;;;;;;;;24.31;76.30;100133.94;5034206;28;1167;-46
2021/07/01 11:02:46;;;;;;;;;;;;;;;24.32;75.91;100131.06;5034098;28;1345;-46
2021/07/01 11:05:15;;;;;;;;;;;;;;;24.29;76.34;100128.75;5034278;28;1078;-47
2021/07/01 11:07:42;;;;;;;;;;;;;;;24.28;76.40;100134.34;5034086;28;1068;-46
2021/07/01 11:10:09;;;;;;;;;;;;;;;24.31;75.51;100124.00;5034320;28;1085;-46
2021/07/01 11:12:42;;;;;;;;;;;;;;;24.33;75.81;100124.66;5034399;28;1989;-46
2021/07/01 11:15:08;;;;;;;;;;;;;;;24.29;76.01;100115.25;5033903;28;1131;-46
2021/07/01 11:17:36;;;;;;;;;;;;;;;24.31;76.04;100118.59;5033851;28;1150;-46
2021/07/01 11:20:12;;;;;;;;;;;;;;;24.29;76.34;100133.28;5034173;28;1080;-46
2021/07/01 11:22:48;;;;;;;;;;;;;;;24.30;76.27;100124.19;5033866;28;1102;-46
2021/07/01 11:25:21;;;;;;;;;;;;;;;24.33;75.69;100145.41;5033780;28;934;-46
2021/07/01 11:27:47;;;;;;;;;;;;;;;24.31;76.41;100136.66;5033997;28;1011;-46
2021/07/01 11:30:21;;;;;;;;;;;;;;;24.31;76.24;100124.00;5033949;28;1077;-46
2021/07/01 11:32:47;;;;;;;;;;;;;;;24.29;76.32;100130.59;5033634;28;1981;-46
2021/07/01 11:35:22;;;;;;;;;;;;;;;24.31;76.07;100124.00;5033663;28;1135;-46
2021/07/01 11:37:53;;;;;;;;;;;;;;;24.32;75.95;100119.41;5033647;28;1072;-46
2021/07/01 11:40:22;;;;;;;;;;;;;;;24.35;76.23;100137.94;5033870;28;1080;-46
2021/07/01 11:42:49;;;;;;;;;;;;;;;24.32;75.71;100116.72;5033301;28;1123;-47
2021/07/01 11:45:16;;;;;;;;;;;;;;;24.32;75.70;100119.41;5033732;28;1065;-46
2021/07/01 11:47:44;;;;;;;;;;;;;;;24.31;76.02;100121.28;5033052;28;1091;-46
2021/07/01 11:50:11;;;;;;;;;;;;;;;24.32;75.68;100127.53;5033451;28;1072;-46
2021/07/01 11:52:37;;;;;;;;;;;;;;;24.30;76.04;100110.66;5033415;28;1906;-44
2021/07/01 11:55:06;;;;;;;;;;;;;;;24.32;75.98;100108.63;5033333;28;1135;-45
2021/07/01 11:57:32;;;;;;;;;;;;;;;24.31;76.27;100118.59;5033680;28;1007;-46
2021/07/01 11:59:59;;;;;;;;;;;;;;;24.32;76.38;100108.63;5033604;28;1100;-46
2021/07/01 12:02:25;;;;;;;;;;;;;;;24.33;76.11;100104.88;5033058;28;1333;-46
2021/07/01 12:04:52;;;;;;;;;;;;;;;24.30;76.29;100105.25;5033332;28;1087;-46
2021/07/01 12:07:22;;;;;;;;;;;;;;;24.31;76.60;100096.97;5033491;28;1126;-46
2021/07/01 12:09:49;;;;;;;;;;;;;;;24.29;76.21;100093.63;5033591;28;1080;-46
2021/07/01 12:12:19;;;;;;;;;;;;;;;24.31;76.32;100094.28;5033692;28;1911;-46
2021/07/01 12:14:46;;;;;;;;;;;;;;;24.31;76.34;100086.16;5033201;28;1179;-46
2021/07/01 12:17:13;;;;;;;;;;;;;;;24.32;76.20;100070.78;5033209;28;1111;-46
2021/07/01 12:20:07;;;;;;;;;;;;;;;24.35;75.98;100086.59;5033439;28;990;-46
2021/07/01 12:22:47;;;;;;;;;;;;;;;24.32;76.26;100073.50;4997892;28;1949;-46
2021/07/01 12:25:15;;;;;;;;;;;;;;;24.33;76.36;100067.91;5033336;28;1079;-46
2021/07/01 12:27:43;;;;;;;;;;;;;;;24.33;76.43;100056.22;5033401;28;1083;-46
2021/07/01 12:30:10;;;;;;;;;;;;;;;24.32;76.16;100059.97;5033021;28;1170;-46
2021/07/01 12:32:37;;;;;;;;;;;;;;;24.31;75.68;100042.06;5033278;28;1906;-46
2021/07/01 12:35:19;;;;;;;;;;;;;;;24.31;75.96;100044.78;5033333;28;1091;-46
2021/07/01 12:38:00;;;;;;;;;;;;;;;24.30;76.15;100040.41;5020904;28;2155;-46
2021/07/01 12:40:27;;;;;;;;;;;;;;;24.35;76.41;100041.53;5032858;28;1625;-46
2021/07/01 12:42:54;;;;;;;;;;;;;;;24.30;76.28;100037.72;5032834;28;1146;-46
2021/07/01 12:45:30;;;;;;;;;;;;;;;24.34;76.23;100033.59;5033240;28;1056;-46
2021/07/01 12:47:58;;;;;;;;;;;;;;;24.33;75.66;100027.38;5032886;28;1084;-46
2021/07/01 12:50:28;;;;;;;;;;;;;;;24.34;76.30;100025.50;5032912;28;1076;-46
2021/07/01 12:52:55;;;;;;;;;;;;;;;24.31;76.21;100009.66;5033091;28;1984;-46
2021/07/01 12:55:26;;;;;;;;;;;;;;;24.29;76.17;100011.69;5032795;28;1146;-46
2021/07/01 12:57:53;;;;;;;;;;;;;;;24.29;76.08;100001.75;5033113;28;1070;-46
2021/07/01 13:00:21;;;;;;;;;;;;;;;24.32;76.37;100003.22;5036157;28;1081;-46
2021/07/01 13:03:01;;;;;;;;;;;;;;;24.33;76.22;99996.78;5036404;28;1941;-46
2021/07/01 13:05:31;;;;;;;;;;;;;;;24.29;76.08;99976.59;5036628;28;1053;-46
2021/07/01 13:07:58;;;;;;;;;;;;;;;24.34;76.04;99990.38;5036627;28;1068;-46
2021/07/01 13:10:24;;;;;;;;;;;;;;;24.32;76.09;99981.63;5036258;28;1130;-46
2021/07/01 13:12:51;;;;;;;;;;;;;;;24.35;75.99;99978.53;5036165;28;1974;-46
2021/07/01 13:15:20;;;;;;;;;;;;;;;24.30;76.24;99964.75;5036502;28;1046;-46
2021/07/01 13:17:49;;;;;;;;;;;;;;;24.30;76.04;99971.00;5036407;28;1069;-46
2021/07/01 13:20:17;;;;;;;;;;;;;;;24.35;75.98;99973.97;5036637;28;1011;-46
2021/07/01 13:22:44;;;;;;;;;;;;;;;24.34;76.37;99972.28;5036046;28;1071;-46